Terminal Aerodrome Forecast
Issued by NWS

Current Version | Previous Version | Text Only | Print | Product List | Glossary Off
Versions: 1 2 3 4 5 6 7 8 9 10 11 12 13 14 15 16 17 18 19 20 21 22 23 24

000
FTUS41 KRNK 161301 AAA
TAFLWB
TAF AMD
KLWB 161301Z 1613/1712 00000KT 1/4SM FG OVC001
      TEMPO 1614/1615 3SM BR SCT005
     FM161500 00000KT P6SM SCT045
     FM170700 00000KT 3SM BR SCT050
     FM170900 00000KT 1/4SM FG BKN001=

USA.gov is the U.S. government's official web portal to all federal, state and local government web resources and services.